Time;durP1;ratioP1;P1;durP2;ratioP2;P2;SDS_P1;SDS_P2;PMS_P1;PMS_P2;Temp;Humidity;BMP_temperature;BMP_pressure;BME280_temperature;BME280_humidity;BME280_pressure;Samples;Min_cycle;Max_cycle;Signal;HPM_P1;HPM_P2
2022/08/01 00:01:18;;;;;;;9.13;3.15;;;;;;;19.47;100.00;99333.16;1795753;80;21489;-78
2022/08/01 00:03:45;;;;;;;3.95;3.02;;;;;;;19.46;100.00;99336.14;1795560;80;21068;-78
2022/08/01 00:06:12;;;;;;;6.55;3.25;;;;;;;19.48;100.00;99331.27;1795714;80;21024;-79
2022/08/01 00:08:38;;;;;;;5.95;3.08;;;;;;;19.46;100.00;99335.63;1795994;80;21045;-79
2022/08/01 00:11:05;;;;;;;3.95;2.98;;;;;;;19.45;100.00;99337.23;1795923;80;20997;-79
2022/08/01 00:13:32;;;;;;;7.42;3.17;;;;;;;19.45;100.00;99331.20;1795488;80;21018;-79
2022/08/01 00:15:59;;;;;;;5.42;3.27;;;;;;;19.47;100.00;99347.41;1795721;80;21021;-79
2022/08/01 00:18:27;;;;;;;7.12;3.12;;;;;;;19.52;100.00;99346.96;1795538;80;21463;-79
2022/08/01 00:20:54;;;;;;;4.53;3.00;;;;;;;19.58;100.00;99347.88;1795707;80;20997;-80
2022/08/01 00:23:21;;;;;;;8.18;3.27;;;;;;;19.63;100.00;99345.23;1795904;80;21406;-79
2022/08/01 00:25:49;;;;;;;5.85;3.27;;;;;;;19.64;100.00;99354.31;1795456;80;21091;-78
2022/08/01 00:28:16;;;;;;;8.45;3.12;;;;;;;19.66;100.00;99355.71;1795770;80;20966;-78
2022/08/01 00:30:43;;;;;;;6.92;3.62;;;;;;;19.66;100.00;99351.59;1795563;80;21060;-77
2022/08/01 00:33:09;;;;;;;7.58;3.10;;;;;;;19.68;100.00;99355.47;1795784;80;20945;-79
2022/08/01 00:35:37;;;;;;;7.83;3.20;;;;;;;19.70;100.00;99347.82;1795600;80;21060;-78
2022/08/01 00:38:04;;;;;;;5.42;3.08;;;;;;;19.69;100.00;99347.00;1794988;80;21021;-78
2022/08/01 00:40:31;;;;;;;9.08;3.47;;;;;;;19.69;100.00;99346.17;1795489;80;21532;-79
2022/08/01 00:42:57;;;;;;;8.43;3.65;;;;;;;19.67;100.00;99333.22;1795599;79;21018;-78
2022/08/01 00:45:24;;;;;;;6.22;3.10;;;;;;;19.65;100.00;99340.33;1795800;79;20974;-78
2022/08/01 00:47:53;;;;;;;6.00;3.10;;;;;;;19.65;100.00;99334.02;1795764;80;21026;-78
2022/08/01 00:50:19;;;;;;;5.78;2.85;;;;;;;19.62;100.00;99338.10;1795389;80;20995;-79
2022/08/01 00:52:46;;;;;;;8.30;2.92;;;;;;;19.59;100.00;99336.39;1795682;80;21440;-77
2022/08/01 00:55:13;;;;;;;6.12;3.40;;;;;;;19.53;100.00;99338.22;1792449;80;21489;-78
2022/08/01 00:57:41;;;;;;;5.85;3.00;;;;;;;19.46;100.00;99341.62;1781669;80;21796;-78
2022/08/01 01:00:10;;;;;;;7.72;2.90;;;;;;;19.41;100.00;99333.34;1781826;80;21006;-78
2022/08/01 01:02:36;;;;;;;8.73;3.30;;;;;;;19.36;100.00;99339.55;1781840;80;20963;-78
2022/08/01 01:05:05;;;;;;;8.23;3.20;;;;;;;19.29;100.00;99327.36;1781929;80;20999;-79
2022/08/01 01:07:42;;;;;;;4.95;2.92;;;;;;;19.25;100.00;99325.38;1781544;80;21039;-78
2022/08/01 01:10:26;;;;;;;5.90;2.92;;;;;;;19.18;100.00;99318.66;1783763;80;20983;-78
2022/08/01 01:13:04;;;;;;;7.58;3.10;;;;;;;19.10;100.00;99313.02;1781688;80;21035;-79
2022/08/01 01:15:45;;;;;;;7.42;3.02;;;;;;;19.07;100.00;99320.89;1725733;83;21117;-79
2022/08/01 01:18:24;;;;;;;6.17;2.87;;;;;;;19.03;100.00;99310.14;1725992;83;21002;-79
2022/08/01 01:21:05;;;;;;;7.85;3.52;;;;;;;18.97;100.00;99301.81;1726107;83;21864;-78
2022/08/01 01:24:03;;;;;;;8.18;3.40;;;;;;;18.94;100.00;99308.33;1665645;85;21100;-78
2022/08/01 01:27:10;;;;;;;7.67;3.05;;;;;;;18.92;100.00;99307.20;1665712;86;21546;-79
2022/08/01 01:29:44;;;;;;;7.40;2.75;;;;;;;18.94;100.00;99317.36;1665919;86;21093;-79
2022/08/01 01:32:23;;;;;;;7.78;3.00;;;;;;;18.97;100.00;99324.28;1645515;87;21512;-78
2022/08/01 01:34:50;;;;;;;7.58;3.52;;;;;;;18.99;100.00;99326.23;1636585;87;21090;-79
2022/08/01 01:37:22;;;;;;;5.15;3.00;;;;;;;19.03;100.00;99319.73;1640847;87;20964;-79
2022/08/01 01:39:50;;;;;;;8.98;3.25;;;;;;;19.06;100.00;99322.81;1655603;87;21046;-78
2022/08/01 01:42:17;;;;;;;9.65;3.20;;;;;;;19.08;100.00;99322.57;1655633;87;21078;-78
2022/08/01 01:44:46;;;;;;;7.95;3.12;;;;;;;19.13;100.00;99319.38;1655367;87;21059;-79
2022/08/01 01:47:13;;;;;;;7.17;3.10;;;;;;;19.16;100.00;99323.56;1586936;90;21115;-78
2022/08/01 01:49:41;;;;;;;7.40;3.35;;;;;;;19.19;100.00;99324.42;1586687;90;21069;-79
2022/08/01 01:52:07;;;;;;;6.97;3.20;;;;;;;19.24;100.00;99327.26;1593775;88;21083;-79
2022/08/01 01:54:42;;;;;;;9.35;3.40;;;;;;;19.26;100.00;99330.58;1585770;90;21065;-79
2022/08/01 01:57:09;;;;;;;7.12;3.55;;;;;;;19.31;100.00;99336.70;1585796;89;21611;-79
2022/08/01 01:59:37;;;;;;;7.83;3.50;;;;;;;19.34;100.00;99334.85;1585819;90;21029;-79
2022/08/01 02:02:04;;;;;;;6.25;2.90;;;;;;;19.37;100.00;99336.25;1585795;90;21085;-79
2022/08/01 02:04:32;;;;;;;6.80;3.70;;;;;;;19.39;100.00;99342.31;1585752;90;21550;-79
2022/08/01 02:06:59;;;;;;;8.75;3.35;;;;;;;19.40;100.00;99339.34;1607279;89;21035;-78
2022/08/01 02:09:27;;;;;;;5.95;3.27;;;;;;;19.43;100.00;99346.25;1585644;90;21113;-77
2022/08/01 02:11:53;;;;;;;8.75;3.37;;;;;;;19.45;100.00;99349.03;1585695;90;21078;-78
2022/08/01 02:14:20;;;;;;;7.80;3.50;;;;;;;19.47;100.00;99348.23;1585666;90;21531;-78
2022/08/01 02:16:49;;;;;;;6.37;2.95;;;;;;;19.51;100.00;99352.69;1585549;90;21073;-78
2022/08/01 02:19:19;;;;;;;9.28;3.67;;;;;;;19.54;100.00;99366.73;1585570;90;21556;-78
2022/08/01 02:21:56;;;;;;;12.07;4.30;;;;;;;19.56;100.00;99371.98;1635914;88;21074;-77
2022/08/01 02:24:43;;;;;;;13.20;3.87;;;;;;;19.57;100.00;99367.34;1635947;88;21094;-78
2022/08/01 02:27:14;;;;;;;8.93;4.05;;;;;;;19.51;100.00;99348.58;1636232;88;21050;-77
2022/08/01 02:29:54;;;;;;;8.83;3.90;;;;;;;19.37;100.00;99326.15;1630585;88;21085;-78
2022/08/01 02:32:31;;;;;;;8.25;4.00;;;;;;;19.20;100.00;99315.68;1683275;85;21047;-78
2022/08/01 02:35:01;;;;;;;10.72;4.20;;;;;;;19.01;100.00;99306.27;1698939;84;21034;-78
2022/08/01 02:37:28;;;;;;;7.35;4.12;;;;;;;18.85;100.00;99301.03;1701344;84;21467;-77
2022/08/01 02:39:55;;;;;;;6.97;4.03;;;;;;;18.75;100.00;99305.75;1677287;84;21005;-78
2022/08/01 02:42:23;;;;;;;5.80;3.90;;;;;;;18.68;100.00;99305.05;1700374;84;21522;-77
2022/08/01 02:44:50;;;;;;;11.90;4.17;;;;;;;18.65;100.00;99295.95;1720654;82;21022;-78
2022/08/01 02:47:19;;;;;;;7.08;4.15;;;;;;;18.63;100.00;99301.35;1754102;82;20979;-78
2022/08/01 02:49:47;;;;;;;10.65;4.80;;;;;;;18.62;100.00;99287.39;1754060;82;21513;-78
2022/08/01 02:52:15;;;;;;;10.82;4.75;;;;;;;18.63;100.00;99289.03;1753939;82;21022;-78
2022/08/01 02:54:45;;;;;;;9.20;4.40;;;;;;;18.64;100.00;99287.97;1753878;82;20959;-76
2022/08/01 02:57:11;;;;;;;12.07;5.00;;;;;;;18.68;100.00;99295.98;1753849;82;21520;-76
2022/08/01 02:59:38;;;;;;;11.20;4.78;;;;;;;18.72;100.00;99287.60;1753738;82;20990;-78
2022/08/01 03:02:05;;;;;;;10.95;5.20;;;;;;;18.78;100.00;99292.09;1729242;82;21026;-77
2022/08/01 03:04:34;;;;;;;10.85;5.35;;;;;;;18.84;100.00;99295.79;1753622;82;21568;-78
2022/08/01 03:07:04;;;;;;;13.30;5.17;;;;;;;18.89;100.00;99292.64;1721648;83;21059;-78
2022/08/01 03:09:33;;;;;;;12.18;5.78;;;;;;;18.93;100.00;99304.77;1721824;83;21055;-78
2022/08/01 03:12:02;;;;;;;14.33;5.50;;;;;;;18.95;100.00;99302.61;1721928;83;21610;-78
2022/08/01 03:14:30;;;;;;;14.03;5.40;;;;;;;18.99;100.00;99303.49;1721627;83;21091;-77
2022/08/01 03:16:58;;;;;;;11.55;5.53;;;;;;;19.00;100.00;99306.51;1722249;83;21024;-79
2022/08/01 03:19:25;;;;;;;12.00;5.72;;;;;;;19.02;100.00;99305.75;1722565;83;21577;-78
2022/08/01 03:21:51;;;;;;;11.35;5.20;;;;;;;19.04;100.00;99299.48;1721675;83;21039;-79
2022/08/01 03:24:19;;;;;;;14.85;5.12;;;;;;;19.06;100.00;99295.96;1721807;83;21019;-79
2022/08/01 03:26:45;;;;;;;12.35;5.35;;;;;;;19.08;100.00;99295.17;1721859;83;20972;-79
2022/08/01 03:29:20;;;;;;;14.47;5.25;;;;;;;19.09;100.00;99313.28;1721775;83;21012;-79
2022/08/01 03:31:48;;;;;;;12.15;5.17;;;;;;;19.08;100.00;99285.58;1667266;86;21022;-78
2022/08/01 03:34:15;;;;;;;11.00;5.20;;;;;;;19.06;100.00;99285.00;1605613;89;21132;-77
2022/08/01 03:36:50;;;;;;;12.93;5.10;;;;;;;19.04;100.00;99281.68;1625341;87;21049;-78
2022/08/01 03:39:18;;;;;;;12.00;4.90;;;;;;;19.04;100.00;99275.66;1619176;89;21103;-79
2022/08/01 03:41:53;;;;;;;11.95;4.83;;;;;;;19.03;100.00;99283.56;1619408;89;21560;-78
2022/08/01 03:44:24;;;;;;;11.10;4.75;;;;;;;19.02;100.00;99287.40;1616484;89;21064;-79
2022/08/01 03:47:01;;;;;;;9.78;4.58;;;;;;;19.01;100.00;99300.79;1619567;89;21018;-78
2022/08/01 03:49:32;;;;;;;12.15;5.08;;;;;;;19.01;100.00;99293.94;1619512;89;21019;-79
2022/08/01 03:52:02;;;;;;;10.03;5.15;;;;;;;19.02;100.00;99307.95;1619542;89;21039;-79
2022/08/01 03:54:33;;;;;;;9.35;4.60;;;;;;;19.02;100.00;99310.69;1585875;90;21058;-78
2022/08/01 03:57:01;;;;;;;7.60;4.70;;;;;;;19.02;100.00;99304.39;1588909;89;21053;-79
2022/08/01 03:59:29;;;;;;;13.00;5.28;;;;;;;18.99;100.00;99293.36;1607783;89;21097;-78
2022/08/01 04:01:56;;;;;;;11.25;4.80;;;;;;;18.99;100.00;99288.43;1607799;89;21037;-78
2022/08/01 04:04:24;;;;;;;10.38;4.60;;;;;;;18.96;100.00;99285.11;1633789;87;21091;-78
2022/08/01 04:06:53;;;;;;;11.75;4.92;;;;;;;18.94;100.00;99269.42;1611174;89;21081;-79
2022/08/01 04:09:21;;;;;;;7.62;4.60;;;;;;;18.94;100.00;99259.02;1611236;89;21111;-79
2022/08/01 04:11:48;;;;;;;9.90;4.58;;;;;;;18.91;100.00;99253.50;1611074;89;21515;-78
2022/08/01 04:14:15;;;;;;;11.78;4.72;;;;;;;18.90;100.00;99246.90;1611119;89;21057;-79
2022/08/01 04:16:42;;;;;;;10.60;5.00;;;;;;;18.90;100.00;99249.09;1611032;89;21144;-78
2022/08/01 04:19:09;;;;;;;14.15;5.00;;;;;;;18.89;100.00;99254.30;1611252;89;21034;-79
2022/08/01 04:21:36;;;;;;;12.00;4.85;;;;;;;18.89;100.00;99255.66;1611109;89;21042;-79
2022/08/01 04:24:11;;;;;;;12.23;4.87;;;;;;;18.91;100.00;99256.24;1611148;88;21069;-78
2022/08/01 04:26:38;;;;;;;10.08;4.67;;;;;;;18.94;100.00;99262.58;1567147;92;21076;-77
2022/08/01 04:29:05;;;;;;;10.43;4.70;;;;;;;18.97;100.00;99254.42;1538494;93;21086;-79
2022/08/01 04:31:33;;;;;;;9.28;4.78;;;;;;;19.00;100.00;99240.25;1567092;92;21155;-80
2022/08/01 04:33:59;;;;;;;10.80;4.85;;;;;;;18.99;100.00;99231.72;1536695;93;21062;-77
2022/08/01 04:36:26;;;;;;;9.68;4.62;;;;;;;18.97;100.00;99222.38;1597254;89;21541;-78
2022/08/01 04:38:58;;;;;;;11.53;4.80;;;;;;;18.96;100.00;99229.47;1629580;88;21553;-78
2022/08/01 04:41:24;;;;;;;7.08;4.47;;;;;;;18.94;100.00;99226.15;1629748;88;21015;-79
2022/08/01 04:43:52;;;;;;;8.85;4.90;;;;;;;18.91;100.00;99217.05;1629987;88;21090;-79
2022/08/01 04:46:18;;;;;;;8.45;4.28;;;;;;;18.86;100.00;99212.32;1629926;88;21056;-78
2022/08/01 04:48:47;;;;;;;9.45;4.50;;;;;;;18.84;100.00;99210.89;1630094;88;21023;-78
2022/08/01 04:51:15;;;;;;;11.60;5.03;;;;;;;18.77;100.00;99206.92;1629996;88;21067;-77
2022/08/01 04:53:43;;;;;;;10.70;4.85;;;;;;;18.73;100.00;99200.25;1629784;88;21055;-77
2022/08/01 04:56:12;;;;;;;14.20;4.95;;;;;;;18.67;100.00;99188.92;1629692;88;21055;-80
2022/08/01 04:58:41;;;;;;;10.30;4.90;;;;;;;18.63;100.00;99183.63;1677983;85;21550;-79
2022/08/01 05:01:09;;;;;;;14.03;7.42;;;;;;;18.55;100.00;99173.36;1617276;89;21057;-80
2022/08/01 05:03:37;;;;;;;13.98;5.80;;;;;;;18.48;100.00;99167.75;1619239;89;21121;-79
2022/08/01 05:06:04;;;;;;;11.68;5.42;;;;;;;18.42;100.00;99162.72;1618951;89;21068;-80
2022/08/01 05:08:31;;;;;;;26.10;17.67;;;;;;;18.35;100.00;99145.07;1618824;89;21527;-79
2022/08/01 05:10:58;;;;;;;16.75;10.32;;;;;;;18.32;100.00;99135.15;1615607;89;21043;-79
2022/08/01 05:13:25;;;;;;;9.73;5.65;;;;;;;18.29;100.00;99126.91;1613943;89;21604;-70
2022/08/01 05:15:52;;;;;;;12.07;6.97;;;;;;;18.28;100.00;99106.08;1613354;89;21107;-71
2022/08/01 05:18:19;;;;;;;15.80;10.00;;;;;;;18.24;100.00;99103.55;1613474;88;21596;-71
2022/08/01 05:20:47;;;;;;;26.40;18.07;;;;;;;18.21;100.00;99099.38;1613239;89;21106;-72
2022/08/01 05:23:14;;;;;;;11.53;5.83;;;;;;;18.21;100.00;99092.53;1633130;86;21106;-69
2022/08/01 05:25:42;;;;;;;403.30;362.98;;;;;;;18.18;100.00;99093.05;1652438;87;21053;-71
2022/08/01 05:28:09;;;;;;;50.70;41.68;;;;;;;18.17;100.00;99096.84;1608601;89;21058;-70
2022/08/01 05:30:35;;;;;;;34.63;20.20;;;;;;;18.19;100.00;99093.86;1602064;89;21078;-71
2022/08/01 05:33:02;;;;;;;17.17;8.63;;;;;;;18.19;100.00;99086.48;1602838;89;21089;-72
2022/08/01 05:35:29;;;;;;;14.13;6.70;;;;;;;18.24;100.00;99089.02;1614443;89;21027;-72
2022/08/01 05:37:56;;;;;;;15.13;5.92;;;;;;;18.25;100.00;99088.77;1622751;88;21066;-70
2022/08/01 05:40:23;;;;;;;9.50;5.50;;;;;;;18.27;100.00;99078.41;1628256;88;21072;-71
2022/08/01 05:42:50;;;;;;;15.65;7.40;;;;;;;18.29;100.00;99069.95;1628256;88;21063;-71
2022/08/01 05:45:16;;;;;;;17.12;10.90;;;;;;;18.35;100.00;99059.41;1628171;88;21099;-70
2022/08/01 05:47:43;;;;;;;376.35;338.68;;;;;;;18.42;100.00;99050.51;1628276;88;21033;-70
2022/08/01 05:50:10;;;;;;;27.60;19.00;;;;;;;18.49;100.00;99040.78;1628231;88;21036;-73
2022/08/01 05:52:37;;;;;;;226.95;204.03;;;;;;;18.54;100.00;99038.13;1628079;88;21103;-73
2022/08/01 05:55:06;;;;;;;235.00;204.65;;;;;;;18.59;100.00;99036.30;1628456;88;21620;-70
2022/08/01 05:57:33;;;;;;;45.25;35.78;;;;;;;18.68;100.00;99023.55;1647428;87;21070;-74
2022/08/01 06:00:00;;;;;;;77.58;65.03;;;;;;;18.75;100.00;99017.36;1654314;87;21084;-73
2022/08/01 06:02:27;;;;;;;26.12;16.27;;;;;;;18.76;100.00;99003.98;1654237;87;21066;-71
2022/08/01 06:04:54;;;;;;;20.37;9.68;;;;;;;18.78;100.00;99001.27;1688595;84;21547;-70
2022/08/01 06:07:21;;;;;;;14.87;8.35;;;;;;;18.76;100.00;98991.66;1726694;82;20974;-71
2022/08/01 06:09:48;;;;;;;17.52;8.73;;;;;;;18.73;100.00;98976.57;1756002;82;20958;-71
2022/08/01 06:12:15;;;;;;;19.37;8.50;;;;;;;18.76;100.00;98976.59;1754952;82;21025;-71
2022/08/01 06:14:43;;;;;;;15.88;8.08;;;;;;;18.84;100.00;98978.10;1756132;82;21065;-71
2022/08/01 06:17:09;;;;;;;15.53;7.58;;;;;;;18.87;100.00;98986.64;1755523;82;21029;-71
2022/08/01 06:19:36;;;;;;;13.75;7.22;;;;;;;18.94;100.00;98980.45;1755260;82;21056;-70
2022/08/01 06:22:03;;;;;;;14.55;7.15;;;;;;;19.02;100.00;98975.09;1755698;82;21061;-70
2022/08/01 06:24:30;;;;;;;12.28;6.72;;;;;;;19.07;100.00;98985.28;1756528;82;21016;-70
2022/08/01 06:26:57;;;;;;;16.23;8.90;;;;;;;19.13;100.00;98998.80;1757566;82;20993;-71
2022/08/01 06:29:24;;;;;;;18.92;10.53;;;;;;;19.16;100.00;99011.19;1756720;81;20954;-70
2022/08/01 06:31:51;;;;;;;14.07;8.05;;;;;;;19.21;100.00;99014.52;1752379;82;20998;-72
2022/08/01 06:34:17;;;;;;;16.93;8.35;;;;;;;19.27;100.00;99000.64;1744685;82;21063;-70
2022/08/01 06:36:45;;;;;;;13.85;6.60;;;;;;;19.35;100.00;99006.22;1736681;81;21054;-71
2022/08/01 06:39:11;;;;;;;12.70;6.25;;;;;;;19.43;100.00;99009.90;1754247;81;21508;-71
2022/08/01 06:41:41;;;;;;;13.45;6.70;;;;;;;19.49;100.00;99017.09;1753327;82;21014;-70
2022/08/01 06:44:07;;;;;;;16.12;7.78;;;;;;;19.49;100.00;99023.13;1754284;82;21053;-70
2022/08/01 06:46:35;;;;;;;15.18;6.97;;;;;;;19.49;100.00;99015.72;1753407;82;20998;-70
2022/08/01 06:49:01;;;;;;;14.35;6.50;;;;;;;19.57;100.00;99015.83;1753955;82;21359;-70
2022/08/01 06:51:28;;;;;;;13.88;6.75;;;;;;;19.68;100.00;99017.61;1754414;82;21026;-70
2022/08/01 06:53:55;;;;;;;11.90;6.17;;;;;;;19.84;100.00;99014.53;1754563;82;21002;-73
2022/08/01 06:56:22;;;;;;;15.88;6.83;;;;;;;19.98;100.00;98998.50;1760024;80;21021;-72
2022/08/01 06:58:50;;;;;;;8.75;5.90;;;;;;;20.06;100.00;98999.42;1795584;80;20998;-73
2022/08/01 07:01:17;;;;;;;8.83;5.75;;;;;;;20.13;100.00;99001.94;1795541;80;21532;-83
2022/08/01 07:03:44;;;;;;;17.02;6.37;;;;;;;20.21;100.00;99002.03;1795624;80;21070;-81
2022/08/01 07:06:11;;;;;;;15.93;6.53;;;;;;;20.22;100.00;99001.77;1766229;80;20965;-83
2022/08/01 07:08:38;;;;;;;13.90;6.90;;;;;;;20.20;100.00;99009.45;1757232;82;21036;-82
2022/08/01 07:11:05;;;;;;;10.72;6.95;;;;;;;20.22;100.00;99005.89;1757814;82;21043;-81
2022/08/01 07:13:32;;;;;;;19.35;9.38;;;;;;;20.23;100.00;99014.39;1757557;81;21083;-81
2022/08/01 07:15:59;;;;;;;14.75;7.33;;;;;;;20.27;100.00;99014.70;1757701;80;21043;-81
2022/08/01 07:18:25;;;;;;;14.43;6.92;;;;;;;20.33;100.00;99023.28;1776108;80;20973;-80
2022/08/01 07:20:52;;;;;;;12.95;7.03;;;;;;;20.35;100.00;99029.89;1795867;79;21054;-72
2022/08/01 07:23:20;;;;;;;13.58;7.53;;;;;;;20.34;100.00;99055.13;1795317;80;21002;-73
2022/08/01 07:25:48;;;;;;;15.78;7.55;;;;;;;20.30;100.00;99069.91;1794922;80;21500;-70
2022/08/01 07:28:15;;;;;;;15.80;7.15;;;;;;;20.28;100.00;99080.32;1794995;79;20975;-72
2022/08/01 07:30:44;;;;;;;16.75;7.60;;;;;;;20.28;100.00;99076.76;1794186;80;21041;-72
2022/08/01 07:33:11;;;;;;;13.85;7.10;;;;;;;20.30;100.00;99071.28;1795659;80;21507;-74
2022/08/01 07:35:40;;;;;;;14.78;7.40;;;;;;;20.36;100.00;99059.83;1794734;80;20993;-72
2022/08/01 07:38:07;;;;;;;20.32;13.50;;;;;;;20.46;100.00;99031.63;1795249;80;20935;-70
2022/08/01 07:40:35;;;;;;;15.35;7.65;;;;;;;20.51;100.00;99004.78;1795375;80;21007;-73
2022/08/01 07:43:02;;;;;;;18.67;8.28;;;;;;;20.46;100.00;98990.45;1795419;80;21037;-73
2022/08/01 07:45:30;;;;;;;16.77;8.13;;;;;;;20.41;100.00;98991.22;1795170;79;21513;-72
2022/08/01 07:48:04;;;;;;;14.38;7.10;;;;;;;20.42;100.00;98990.14;1795513;80;20979;-71
2022/08/01 07:50:31;;;;;;;13.72;7.22;;;;;;;20.59;100.00;98980.94;1741396;82;21059;-73
2022/08/01 07:52:58;;;;;;;13.95;6.92;;;;;;;21.04;100.00;98971.40;1744103;82;21031;-72
2022/08/01 07:55:25;;;;;;;15.58;7.83;;;;;;;21.40;100.00;98965.52;1744337;82;21050;-71
2022/08/01 07:57:52;;;;;;;12.65;6.40;;;;;;;21.62;100.00;98976.93;1739393;82;21055;-73
2022/08/01 08:00:18;;;;;;;10.13;6.03;;;;;;;21.84;100.00;98979.46;1736381;83;20968;-73
2022/08/01 08:02:45;;;;;;;13.20;6.72;;;;;;;22.11;100.00;99001.81;1736422;83;21015;-74
2022/08/01 08:05:12;;;;;;;11.75;6.28;;;;;;;22.34;100.00;99013.70;1736218;83;21078;-72
2022/08/01 08:07:39;;;;;;;15.63;6.58;;;;;;;22.55;100.00;99032.45;1734218;83;21090;-73
2022/08/01 08:10:07;;;;;;;9.78;5.72;;;;;;;22.66;100.00;99046.24;1733631;83;21118;-74
2022/08/01 08:12:34;;;;;;;9.80;6.60;;;;;;;22.62;100.00;99063.87;1734372;83;21026;-72
2022/08/01 08:15:01;;;;;;;13.08;6.92;;;;;;;22.57;100.00;99068.00;1734226;83;21093;-70
2022/08/01 08:17:27;;;;;;;12.40;6.25;;;;;;;22.47;100.00;99077.62;1734685;83;21174;-71
2022/08/01 08:19:55;;;;;;;9.68;5.95;;;;;;;22.36;100.00;99098.81;1734068;83;21086;-72
2022/08/01 08:22:21;;;;;;;15.83;6.40;;;;;;;22.32;100.00;99112.84;1736062;83;21026;-72
2022/08/01 08:24:49;;;;;;;9.20;6.00;;;;;;;22.59;100.00;99087.83;1735843;83;21007;-71
2022/08/01 08:47:24;;;;;;;12.35;6.35;;;;;;;24.56;100.00;99151.52;1816225;79;22973;-79
2022/08/01 08:49:53;;;;;;;11.15;6.20;;;;;;;24.62;100.00;99172.47;1767026;81;21540;-80
2022/08/01 08:52:21;;;;;;;11.25;5.95;;;;;;;24.64;100.00;99166.66;1766789;81;21050;-79
2022/08/01 08:54:49;;;;;;;17.12;9.38;;;;;;;24.71;100.00;99165.79;1766813;81;21081;-80
2022/08/01 08:57:16;;;;;;;15.72;7.08;;;;;;;24.78;100.00;99174.59;1771782;79;20989;-81
2022/08/01 08:59:46;;;;;;;12.25;6.50;;;;;;;24.68;100.00;99169.69;1790712;79;21441;-78
2022/08/01 09:02:13;;;;;;;12.53;6.60;;;;;;;24.49;100.00;99155.13;1808791;79;21015;-79
2022/08/01 09:04:40;;;;;;;12.15;6.67;;;;;;;24.26;100.00;99147.77;1808972;79;21002;-81
2022/08/01 09:07:08;;;;;;;12.43;6.53;;;;;;;24.05;100.00;99149.78;1809090;79;21026;-80
2022/08/01 09:09:37;;;;;;;12.40;6.72;;;;;;;23.85;100.00;99153.98;1808997;79;21054;-78
2022/08/01 09:12:04;;;;;;;11.33;6.58;;;;;;;23.61;100.00;99149.05;1808877;79;21062;-78
2022/08/01 09:14:34;;;;;;;11.30;6.60;;;;;;;23.38;100.00;99172.53;1808572;79;20979;-80
2022/08/01 09:17:10;;;;;;;11.22;6.25;;;;;;;23.14;100.00;99161.22;1809518;79;21088;-79
2022/08/01 09:19:41;;;;;;;15.48;6.50;;;;;;;22.92;100.00;99134.71;1808991;79;21523;-83
2022/08/01 09:22:11;;;;;;;12.65;6.85;;;;;;;22.73;100.00;99113.77;1809669;79;21002;-78
2022/08/01 09:24:39;;;;;;;21.37;15.10;;;;;;;22.62;100.00;99085.09;1809873;79;21039;-79
2022/08/01 09:27:19;;;;;;;9.73;6.72;;;;;;;22.58;100.00;99075.73;1809593;79;21127;-80
2022/08/01 09:29:46;;;;;;;11.05;6.42;;;;;;;22.54;100.00;99063.87;1742768;82;21013;-81
2022/08/01 09:32:13;;;;;;;9.83;6.30;;;;;;;22.54;100.00;99052.01;1743210;82;21357;-79
2022/08/01 09:34:39;;;;;;;14.83;7.30;;;;;;;22.53;100.00;99042.93;1743627;82;21044;-79
2022/08/01 09:37:06;;;;;;;15.43;6.90;;;;;;;22.52;100.00;99038.54;1750522;82;21031;-83
2022/08/01 09:39:39;;;;;;;10.45;5.97;;;;;;;22.48;100.00;99052.56;1756618;82;21087;-79
2022/08/01 09:42:24;;;;;;;15.30;6.45;;;;;;;22.44;100.00;99055.59;1756950;82;20972;-79
2022/08/01 09:44:50;;;;;;;11.83;6.45;;;;;;;22.44;100.00;99065.80;1756589;82;21496;-78
2022/08/01 09:47:20;;;;;;;11.28;6.40;;;;;;;22.45;100.00;99075.16;1756014;82;21623;-80
2022/08/01 09:49:56;;;;;;;13.70;6.85;;;;;;;22.45;100.00;99103.23;1732027;82;21146;-79
2022/08/01 09:52:25;;;;;;;10.00;6.28;;;;;;;22.49;100.00;99121.71;1754503;82;21186;-80
2022/08/01 09:54:56;;;;;;;14.05;8.55;;;;;;;22.53;100.00;99146.78;1756317;82;21008;-80
2022/08/01 09:57:23;;;;;;;12.63;7.22;;;;;;;22.54;100.00;99167.70;1689763;85;21049;-81
2022/08/01 09:59:56;;;;;;;10.53;6.80;;;;;;;22.54;100.00;99178.73;1640366;87;21028;-79
2022/08/01 10:02:33;;;;;;;;;;;;;;;22.52;100.00;99182.30;1619410;89;21102;-84
2022/08/01 10:05:05;;;;;;;13.32;6.35;;;;;;;22.49;100.00;99169.91;1616569;89;20205;-81
2022/08/01 10:07:32;;;;;;;12.30;7.20;;;;;;;22.49;100.00;99193.89;1613476;89;21061;-77
2022/08/01 10:10:14;;;;;;;11.08;6.05;;;;;;;22.47;100.00;99205.70;1616684;89;21762;-79
2022/08/01 10:12:42;;;;;;;16.45;8.05;;;;;;;22.46;100.00;99203.50;1591452;90;21079;-79
2022/08/01 10:15:10;;;;;;;14.90;7.75;;;;;;;22.45;100.00;99216.16;1614028;89;21075;-78
2022/08/01 10:17:39;;;;;;;16.32;10.03;;;;;;;22.42;100.00;99206.52;1613374;89;21099;-80
2022/08/01 10:20:08;;;;;;;14.95;7.80;;;;;;;22.36;100.00;99212.56;1613519;89;21477;-79
2022/08/01 10:22:34;;;;;;;16.42;8.45;;;;;;;22.30;100.00;99215.56;1613456;89;21075;-78
2022/08/01 10:25:03;;;;;;;14.60;8.20;;;;;;;22.22;100.00;99209.97;1621629;88;21059;-78
2022/08/01 10:27:33;;;;;;;13.53;7.67;;;;;;;22.16;100.00;99216.00;1638246;88;21115;-79
2022/08/01 10:30:03;;;;;;;13.70;7.75;;;;;;;22.11;100.00;99206.89;1638612;88;21049;-80
2022/08/01 10:32:32;;;;;;;15.35;8.18;;;;;;;22.04;100.00;99217.31;1637211;88;21062;-78
2022/08/01 10:34:59;;;;;;;15.38;7.97;;;;;;;21.96;100.00;99223.61;1637067;88;21086;-78
2022/08/01 10:37:28;;;;;;;14.93;8.55;;;;;;;21.91;100.00;99224.13;1638270;87;21006;-79
2022/08/01 10:39:55;;;;;;;16.73;8.60;;;;;;;21.87;100.00;99220.23;1638577;87;21153;-78
2022/08/01 10:42:21;;;;;;;14.05;7.42;;;;;;;21.82;100.00;99214.17;1638680;87;21121;-78
2022/08/01 10:44:48;;;;;;;11.63;7.67;;;;;;;21.76;100.00;99208.33;1616302;87;21240;-78
2022/08/01 10:47:36;;;;;;;13.53;8.23;;;;;;;21.72;100.00;99203.09;1634135;87;21573;-79
2022/08/01 10:50:17;;;;;;;16.30;8.90;;;;;;;21.68;100.00;99200.59;1626550;87;21080;-78
2022/08/01 10:53:13;;;;;;;19.95;9.63;;;;;;;21.65;100.00;99192.86;1609114;89;21064;-80
2022/08/01 10:56:00;;;;;;;14.38;8.48;;;;;;;21.57;100.00;99192.82;1663583;86;21084;-79
2022/08/01 10:58:34;;;;;;;17.25;8.45;;;;;;;21.47;100.00;99170.19;1608826;88;21110;-79
2022/08/01 11:01:24;;;;;;;15.45;8.50;;;;;;;21.39;100.00;99167.91;1603135;89;21070;-80
2022/08/01 11:04:08;;;;;;;16.27;8.88;;;;;;;21.30;100.00;99157.94;1603627;89;21112;-78
2022/08/01 11:06:42;;;;;;;14.63;8.13;;;;;;;21.20;100.00;99149.61;1603916;89;21102;-80
2022/08/01 11:09:20;;;;;;;16.97;9.68;;;;;;;21.10;100.00;99142.09;1635894;86;21084;-79
2022/08/01 11:12:08;;;;;;;18.48;10.90;;;;;;;21.01;100.00;99137.63;1662395;86;21124;-78
2022/08/01 11:15:00;;;;;;;17.90;9.28;;;;;;;20.95;100.00;99148.86;1621318;88;21007;-80
2022/08/01 11:17:48;;;;;;;18.00;9.53;;;;;;;20.89;100.00;99135.59;1621151;88;21580;-81
2022/08/01 11:20:26;;;;;;;22.48;9.80;;;;;;;20.82;100.00;99117.97;1622114;88;21088;-78
2022/08/01 11:23:05;;;;;;;15.28;9.60;;;;;;;20.78;100.00;99096.77;1621593;88;21071;-80
2022/08/01 11:25:46;;;;;;;16.17;10.20;;;;;;;20.75;100.00;99086.29;1622137;88;21079;-81
2022/08/01 11:30:54;;;;;;;17.30;9.75;;;;;;;20.75;100.00;99058.30;1500853;96;21095;-79
2022/08/01 11:33:47;;;;;;;15.53;9.40;;;;;;;20.77;100.00;99046.50;1494497;96;21129;-78
2022/08/01 11:36:20;;;;;;;18.00;9.83;;;;;;;20.77;100.00;99039.63;1542349;93;21007;-77
2022/08/01 11:39:10;;;;;;;16.87;9.78;;;;;;;20.75;100.00;99036.32;1541376;93;21209;-76
2022/08/01 11:41:37;;;;;;;13.98;8.83;;;;;;;20.75;100.00;99020.36;1541845;93;21556;-79
2022/08/01 11:44:13;;;;;;;13.13;8.40;;;;;;;20.77;100.00;99007.19;1541981;93;21508;-79
2022/08/01 11:46:55;;;;;;;17.98;10.70;;;;;;;20.79;100.00;99003.66;1541536;92;21599;-75
2022/08/01 11:49:44;;;;;;;16.07;9.95;;;;;;;20.83;100.00;98993.23;1541845;89;21031;-78
2022/08/01 11:52:26;;;;;;;16.80;9.88;;;;;;;20.91;100.00;98977.34;1541201;92;21078;-78
2022/08/01 11:55:08;;;;;;;16.93;9.80;;;;;;;20.95;100.00;98968.88;1542004;93;21177;-75